Terminal Aerodrome Forecast
Issued by NWS Twin Cities, MN

Current Version | Previous Version | Text Only | Print | Product List | Glossary On
Versions: 1 2 3 4 5 6 7 8 9 10 11 12 13 14 15 16 17 18 19 20 21 22 23 24 25 26 27 28 29 30
000
FTUS43 KMPX 030200 AAA
TAFMSP
TAF AMD
KMSP 030248Z 0303/0406 21006KT P6SM FEW070 SCT250
     FM031000 18005KT P6SM SCT070 BKN100
     FM031400 18010KT P6SM VCSH SCT050 BKN080
     FM031900 17012G18KT P6SM FEW040 SCT080
     FM040200 12009KT P6SM VCSH SCT040 BKN080 PROB30 0402/0406 2SM
      TSRA OVC030CB=

USA.gov is the U.S. government's official web portal to all federal, state and local government web resources and services.